Time;durP1;ratioP1;P1;durP2;ratioP2;P2;SDS_P1;SDS_P2;PMS_P1;PMS_P2;Temp;Humidity;BMP_temperature;BMP_pressure;BME280_temperature;BME280_humidity;BME280_pressure;Samples;Min_cycle;Max_cycle;Signal;HPM_P1;HPM_P2
2022/05/08 00:02:09;;;;;;;3.97;2.20;;;11.50;89.80;;;;;;5034646;28;20037;-74
2022/05/08 00:04:35;;;;;;;4.93;2.40;;;11.50;90.10;;;;;;4996910;28;20030;-75
2022/05/08 00:07:00;;;;;;;3.58;2.10;;;11.50;90.40;;;;;;5007562;28;20368;-74
2022/05/08 00:09:26;;;;;;;3.90;2.22;;;11.40;90.40;;;;;;4999078;28;20234;-74
2022/05/08 00:11:54;;;;;;;6.07;2.63;;;11.40;90.60;;;;;;5003047;28;20030;-75
2022/05/08 00:14:20;;;;;;;4.85;2.50;;;11.40;90.40;;;;;;5005759;28;20056;-74
2022/05/08 00:16:46;;;;;;;5.35;2.75;;;11.40;90.40;;;;;;5006610;28;20045;-75
2022/05/08 00:19:12;;;;;;;5.20;2.63;;;11.40;90.60;;;;;;5007730;28;20487;-74
2022/05/08 00:21:39;;;;;;;4.90;2.40;;;11.40;90.50;;;;;;5004485;28;20026;-75
2022/05/08 00:24:05;;;;;;;5.07;2.53;;;11.40;90.80;;;;;;5006030;28;20038;-75
2022/05/08 00:26:30;;;;;;;4.88;2.72;;;11.40;90.60;;;;;;5005165;28;20049;-75
2022/05/08 00:28:56;;;;;;;5.70;2.80;;;11.30;90.80;;;;;;5001371;28;20038;-74
2022/05/08 00:31:22;;;;;;;4.53;2.78;;;11.30;91.00;;;;;;4997381;28;20541;-74
2022/05/08 00:33:48;;;;;;;5.05;2.60;;;11.30;91.10;;;;;;5007629;28;20040;-74
2022/05/08 00:36:13;;;;;;;4.40;2.78;;;11.20;91.10;;;;;;5036213;28;20030;-75
2022/05/08 00:38:39;;;;;;;4.85;3.08;;;11.20;91.30;;;;;;4993881;28;20034;-74
2022/05/08 00:41:07;;;;;;;5.18;3.03;;;11.20;91.30;;;;;;4996279;28;20038;-73
2022/05/08 00:43:40;;;;;;;5.47;3.47;;;11.30;90.90;;;;;;5001054;28;20160;-73
2022/05/08 00:46:11;;;;;;;4.93;2.83;;;11.30;90.90;;;;;;5007253;28;20034;-74
2022/05/08 00:48:37;;;;;;;5.22;3.25;;;11.30;90.80;;;;;;5038913;28;20068;-74
2022/05/08 00:51:09;;;;;;;6.68;3.72;;;11.30;90.70;;;;;;5006590;28;20048;-73
2022/05/08 00:53:40;;;;;;;5.10;3.00;;;11.20;90.60;;;;;;5004438;28;20038;-73
2022/05/08 00:56:10;;;;;;;6.65;3.22;;;11.20;90.60;;;;;;4999242;28;20161;-73
2022/05/08 00:58:39;;;;;;;5.88;2.88;;;11.20;90.90;;;;;;5013858;28;20387;-74
2022/05/08 01:01:05;;;;;;;7.30;3.23;;;11.10;90.70;;;;;;5001799;28;20555;-73
2022/05/08 01:03:31;;;;;;;5.47;3.08;;;11.10;90.70;;;;;;5006240;28;20038;-73
2022/05/08 01:05:59;;;;;;;5.90;3.10;;;11.10;90.70;;;;;;5002752;28;20026;-73
2022/05/08 01:08:25;;;;;;;5.05;3.20;;;11.10;91.00;;;;;;5001648;28;20605;-73
2022/05/08 01:10:53;;;;;;;6.60;3.63;;;11.00;91.00;;;;;;5007209;28;20155;-73
2022/05/08 01:13:19;;;;;;;6.60;3.70;;;11.00;91.10;;;;;;5007335;28;20042;-73
2022/05/08 01:15:46;;;;;;;6.00;3.70;;;11.00;91.10;;;;;;5002550;28;20172;-73
2022/05/08 01:18:14;;;;;;;5.70;3.65;;;11.00;91.10;;;;;;4995191;28;20715;-74
2022/05/08 01:20:44;;;;;;;7.57;3.90;;;11.00;91.00;;;;;;5006303;28;20022;-73
2022/05/08 01:23:11;;;;;;;6.25;3.45;;;10.90;90.90;;;;;;5003848;28;20558;-73
2022/05/08 01:25:46;;;;;;;6.47;3.60;;;10.90;91.00;;;;;;5000875;28;20499;-73
2022/05/08 01:28:12;;;;;;;5.80;3.38;;;10.90;90.80;;;;;;5007166;28;20030;-74
2022/05/08 01:30:42;;;;;;;6.38;3.22;;;10.80;91.20;;;;;;4998887;28;20103;-74
2022/05/08 01:33:09;;;;;;;5.20;2.83;;;10.70;90.80;;;;;;5003722;28;20121;-73
2022/05/08 01:35:35;;;;;;;5.65;3.47;;;10.60;91.00;;;;;;5005131;28;20029;-73
2022/05/08 01:38:01;;;;;;;5.57;2.95;;;10.60;90.90;;;;;;5006908;28;20030;-74
2022/05/08 01:40:28;;;;;;;6.13;3.25;;;10.50;91.10;;;;;;5005171;28;20053;-73
2022/05/08 01:42:53;;;;;;;4.90;2.95;;;10.50;91.20;;;;;;5002067;28;20031;-74
2022/05/08 01:45:19;;;;;;;9.00;3.55;;;10.40;91.40;;;;;;5009169;28;20040;-74
2022/05/08 01:50:29;;;;;;;5.70;3.10;;;10.30;91.20;;;;;;5007404;28;20072;-73
2022/05/08 01:52:54;;;;;;;6.50;3.15;;;10.20;91.50;;;;;;5006556;28;20057;-73
2022/05/08 01:55:20;;;;;;;6.93;3.45;;;10.10;91.70;;;;;;5007393;28;20033;-74
2022/05/08 01:57:46;;;;;;;5.88;3.20;;;10.10;91.90;;;;;;4994057;28;20072;-73
2022/05/08 02:00:12;;;;;;;4.78;2.90;;;10.00;91.90;;;;;;5019691;28;20077;-73
2022/05/08 02:02:38;;;;;;;6.00;3.10;;;10.00;92.10;;;;;;5005049;28;20706;-73
2022/05/08 02:05:04;;;;;;;6.80;3.28;;;10.00;92.20;;;;;;5006860;28;20030;-73
2022/05/08 02:07:30;;;;;;;6.82;3.38;;;10.00;92.40;;;;;;5007125;28;20030;-73
2022/05/08 02:09:56;;;;;;;8.20;3.47;;;10.00;92.40;;;;;;5007767;28;20036;-73
2022/05/08 02:12:22;;;;;;;7.22;3.22;;;10.10;92.20;;;;;;5039179;28;20037;-74
2022/05/08 02:14:48;;;;;;;7.47;3.08;;;10.10;92.20;;;;;;5009152;28;20042;-73
2022/05/08 02:17:13;;;;;;;7.38;3.05;;;10.10;92.00;;;;;;5010214;28;20388;-74
2022/05/08 02:19:39;;;;;;;7.35;2.88;;;10.10;91.70;;;;;;5010846;28;20041;-73
2022/05/08 02:22:05;;;;;;;10.27;4.13;;;10.20;92.00;;;;;;5036438;28;20038;-73
2022/05/08 02:24:31;;;;;;;8.05;4.05;;;10.20;91.50;;;;;;5008432;28;20038;-73
2022/05/08 02:26:56;;;;;;;9.30;4.40;;;10.20;91.60;;;;;;5008913;28;20033;-73
2022/05/08 02:29:22;;;;;;;8.13;3.70;;;10.20;91.30;;;;;;5010987;28;20071;-74
2022/05/08 02:31:48;;;;;;;8.85;4.20;;;10.10;91.20;;;;;;5006159;28;20030;-74
2022/05/08 02:34:13;;;;;;;12.73;5.25;;;10.10;91.20;;;;;;5010270;28;20376;-73
2022/05/08 02:36:39;;;;;;;11.57;5.32;;;10.00;91.00;;;;;;5006240;28;20346;-74
2022/05/08 02:39:05;;;;;;;11.35;4.70;;;9.90;91.00;;;;;;5010828;28;20395;-74
2022/05/08 02:41:31;;;;;;;10.80;5.60;;;9.90;91.30;;;;;;5007172;28;20498;-73
2022/05/08 02:43:56;;;;;;;9.52;5.40;;;9.80;91.90;;;;;;5009317;28;20033;-73
2022/05/08 02:46:22;;;;;;;15.77;5.63;;;9.80;91.70;;;;;;4999928;28;20065;-73
2022/05/08 02:48:48;;;;;;;10.93;5.18;;;9.70;91.70;;;;;;4995375;28;20041;-73
2022/05/08 02:51:14;;;;;;;13.07;5.25;;;9.70;91.80;;;;;;5005151;28;20120;-73
2022/05/08 02:53:39;;;;;;;14.30;5.68;;;9.70;92.10;;;;;;5008372;28;20095;-73
2022/05/08 02:58:49;;;;;;;12.13;6.50;;;9.60;92.10;;;;;;5007866;28;20032;-73
2022/05/08 03:01:15;;;;;;;10.82;6.03;;;9.60;92.00;;;;;;5003321;28;20037;-74
2022/05/08 03:03:40;;;;;;;12.68;6.50;;;9.50;92.00;;;;;;5008156;28;20415;-73
2022/05/08 03:06:06;;;;;;;16.30;7.20;;;9.50;92.20;;;;;;5000970;28;20465;-74
2022/05/08 03:08:32;;;;;;;18.23;6.57;;;9.40;92.40;;;;;;5004810;28;20026;-73
2022/05/08 03:13:43;;;;;;;14.82;6.65;;;9.40;92.30;;;;;;5009057;28;20128;-73
2022/05/08 03:16:10;;;;;;;13.35;5.90;;;9.40;92.30;;;;;;5006143;28;20022;-73
2022/05/08 03:18:39;;;;;;;13.70;6.82;;;9.30;92.40;;;;;;5002050;28;20496;-73
2022/05/08 03:21:05;;;;;;;15.05;7.63;;;9.30;92.30;;;;;;5010807;28;20837;-73
2022/05/08 03:23:31;;;;;;;13.60;6.95;;;9.20;92.40;;;;;;5009770;28;20068;-73
2022/05/08 03:25:57;;;;;;;15.40;7.00;;;9.20;92.40;;;;;;5008544;28;20858;-73
2022/05/08 03:28:22;;;;;;;12.15;6.93;;;9.20;92.50;;;;;;5007351;28;20115;-73
2022/05/08 03:30:48;;;;;;;13.23;6.43;;;9.10;92.60;;;;;;5006076;28;20055;-73
2022/05/08 03:33:15;;;;;;;17.73;6.70;;;9.10;92.80;;;;;;5004045;28;20030;-74
2022/05/08 03:35:41;;;;;;;18.85;7.07;;;9.10;92.50;;;;;;5005218;28;20038;-73
2022/05/08 03:38:07;;;;;;;13.10;7.07;;;8.90;92.60;;;;;;5009302;28;20032;-74
2022/05/08 03:40:34;;;;;;;12.98;6.93;;;8.90;92.60;;;;;;5002712;28;20096;-73
2022/05/08 03:43:00;;;;;;;13.70;7.03;;;8.90;93.00;;;;;;4994085;28;20044;-73
2022/05/08 03:45:27;;;;;;;13.63;7.70;;;8.90;93.10;;;;;;5007885;28;20503;-73
2022/05/08 03:47:53;;;;;;;16.80;8.00;;;8.80;93.00;;;;;;5008675;28;20076;-73
2022/05/08 03:50:19;;;;;;;16.38;8.23;;;8.80;93.00;;;;;;5006337;28;20037;-73
2022/05/08 03:52:46;;;;;;;17.95;9.00;;;8.80;93.20;;;;;;4998480;28;20088;-74
2022/05/08 03:55:13;;;;;;;17.73;9.10;;;8.80;93.30;;;;;;5008926;28;20095;-73
2022/05/08 03:57:39;;;;;;;18.88;8.32;;;8.80;93.40;;;;;;5001609;28;20026;-74
2022/05/08 04:00:05;;;;;;;17.58;8.18;;;8.80;93.40;;;;;;5002137;28;20690;-74
2022/05/08 04:02:31;;;;;;;17.77;8.93;;;8.80;93.20;;;;;;5007907;28;20033;-73
2022/05/08 04:04:56;;;;;;;16.40;8.02;;;8.60;92.90;;;;;;5011494;28;20361;-73
2022/05/08 04:07:22;;;;;;;18.30;8.63;;;8.50;93.20;;;;;;5006197;28;20743;-73
2022/05/08 04:09:48;;;;;;;19.70;9.00;;;8.40;93.50;;;;;;4997781;28;20096;-73
2022/05/08 04:12:13;;;;;;;14.07;8.05;;;8.40;93.80;;;;;;5003085;28;20073;-73
2022/05/08 04:14:39;;;;;;;18.92;9.23;;;8.40;93.90;;;;;;5006021;28;20388;-73
2022/05/08 04:17:04;;;;;;;15.35;7.30;;;8.40;93.80;;;;;;5006212;28;20045;-73
2022/05/08 04:19:30;;;;;;;19.55;9.32;;;8.40;93.90;;;;;;4999946;28;20088;-74
2022/05/08 04:24:16;;;;;;;19.55;9.60;;;8.40;94.10;;;;;;5007464;28;20045;-74
2022/05/08 04:24:42;;;;;;;15.25;8.10;;;8.40;94.40;;;;;;5005455;28;20679;-73
2022/05/08 04:27:08;;;;;;;18.85;9.20;;;8.50;94.50;;;;;;5007993;28;20029;-73
2022/05/08 04:29:33;;;;;;;17.30;8.63;;;8.60;94.50;;;;;;5006575;28;20037;-74
2022/05/08 04:31:59;;;;;;;15.75;7.72;;;8.60;94.30;;;;;;5005707;28;20042;-74
2022/05/08 04:34:25;;;;;;;17.83;8.60;;;8.60;94.10;;;;;;5007271;28;20030;-73
2022/05/08 04:36:50;;;;;;;16.92;8.93;;;8.60;94.10;;;;;;4999228;28;20036;-73
2022/05/08 04:39:17;;;;;;;18.55;8.00;;;8.60;94.20;;;;;;5003131;28;20072;-73
2022/05/08 04:41:43;;;;;;;17.65;8.15;;;8.70;94.10;;;;;;5008322;28;20761;-73
2022/05/08 04:44:09;;;;;;;19.35;8.45;;;8.60;94.10;;;;;;5038280;28;20044;-73
2022/05/08 04:46:35;;;;;;;17.25;7.60;;;8.70;94.00;;;;;;5010289;28;20034;-73
2022/05/08 04:49:00;;;;;;;17.25;8.88;;;8.70;94.10;;;;;;5019811;28;20041;-74
2022/05/08 04:51:26;;;;;;;17.77;8.85;;;8.80;94.10;;;;;;5022496;28;20487;-73
2022/05/08 04:53:52;;;;;;;13.55;6.57;;;8.80;93.90;;;;;;4997607;28;20737;-73
2022/05/08 04:56:18;;;;;;;18.58;8.23;;;8.80;93.90;;;;;;5007534;28;20434;-73
2022/05/08 04:58:44;;;;;;;15.35;8.38;;;8.90;94.00;;;;;;5007024;28;20494;-73
2022/05/08 05:01:10;;;;;;;16.92;8.13;;;8.90;94.00;;;;;;5005634;28;20075;-73
2022/05/08 05:03:36;;;;;;;14.52;8.55;;;9.00;93.90;;;;;;5037573;28;20103;-72
2022/05/08 05:06:02;;;;;;;17.13;8.20;;;9.00;93.80;;;;;;5006336;28;20088;-73
2022/05/08 05:08:28;;;;;;;16.83;9.18;;;9.00;93.70;;;;;;5004439;28;20456;-74
2022/05/08 05:10:54;;;;;;;19.30;8.60;;;9.10;93.70;;;;;;5003904;28;20116;-73
2022/05/08 05:13:19;;;;;;;17.73;9.45;;;9.10;93.60;;;;;;5006196;28;20042;-74
2022/05/08 05:15:45;;;;;;;22.20;9.50;;;9.10;93.50;;;;;;5007499;28;20058;-73
2022/05/08 05:18:11;;;;;;;20.52;10.60;;;9.20;93.50;;;;;;5037512;28;20121;-74
2022/05/08 05:20:37;;;;;;;18.42;9.35;;;9.20;93.60;;;;;;4994746;28;20496;-74
2022/05/08 05:23:03;;;;;;;16.20;8.55;;;9.30;93.40;;;;;;5006433;28;20038;-73
2022/05/08 05:25:29;;;;;;;17.88;9.75;;;9.40;93.40;;;;;;5003856;28;20026;-73
2022/05/08 05:27:56;;;;;;;19.00;9.75;;;9.40;93.30;;;;;;5001817;28;20065;-74
2022/05/08 05:30:22;;;;;;;19.83;9.48;;;9.50;93.30;;;;;;5006959;28;21939;-74
2022/05/08 05:32:48;;;;;;;18.70;10.68;;;9.60;93.30;;;;;;5006164;28;20057;-73
2022/05/08 05:35:13;;;;;;;14.70;8.52;;;9.70;93.10;;;;;;5029698;28;20064;-73
2022/05/08 05:37:39;;;;;;;19.73;9.73;;;9.70;93.00;;;;;;5003546;28;20452;-74
2022/05/08 05:40:08;;;;;;;16.70;8.57;;;9.80;93.00;;;;;;5002015;28;20034;-73
2022/05/08 05:42:34;;;;;;;16.48;8.52;;;9.80;92.70;;;;;;4989167;28;20031;-73
2022/05/08 05:45:00;;;;;;;19.73;9.70;;;9.90;92.70;;;;;;5003955;28;20037;-73
2022/05/08 05:50:09;;;;;;;16.83;8.07;;;10.00;92.50;;;;;;5004579;28;20383;-73
2022/05/08 05:52:36;;;;;;;19.77;8.27;;;10.10;92.40;;;;;;5003084;28;20547;-74
2022/05/08 05:55:04;;;;;;;19.58;7.43;;;10.20;92.00;;;;;;5003271;28;20052;-74
2022/05/08 05:57:30;;;;;;;19.33;7.47;;;10.30;91.70;;;;;;5003009;28;20551;-73
2022/05/08 05:59:56;;;;;;;18.85;6.97;;;10.40;91.50;;;;;;5003254;28;20022;-73
2022/05/08 06:02:22;;;;;;;18.02;6.75;;;10.40;91.30;;;;;;5002910;28;20662;-73
2022/05/08 06:04:47;;;;;;;19.50;7.25;;;10.50;91.20;;;;;;5002423;28;20030;-73
2022/05/08 06:07:13;;;;;;;17.00;6.13;;;10.60;91.10;;;;;;5005813;28;20041;-72
2022/05/08 06:09:39;;;;;;;16.15;7.03;;;10.70;90.90;;;;;;5000334;28;20030;-73
2022/05/08 06:12:05;;;;;;;19.95;6.45;;;10.70;90.90;;;;;;5002596;28;20116;-73
2022/05/08 06:14:31;;;;;;;19.33;6.38;;;10.80;90.40;;;;;;4997130;28;20053;-73
2022/05/08 06:16:57;;;;;;;16.25;5.75;;;10.90;90.70;;;;;;5034421;28;20029;-73
2022/05/08 06:19:23;;;;;;;17.02;5.93;;;10.90;90.40;;;;;;4999551;28;20031;-74
2022/05/08 06:21:49;;;;;;;16.17;6.05;;;11.00;90.30;;;;;;5006114;28;20041;-74
2022/05/08 06:24:15;;;;;;;13.88;5.75;;;11.10;90.20;;;;;;5015434;28;20070;-74
2022/05/08 06:26:40;;;;;;;22.05;7.00;;;11.20;90.10;;;;;;4996564;28;20053;-73
2022/05/08 06:29:06;;;;;;;15.57;6.85;;;11.30;90.00;;;;;;4994607;28;20030;-73
2022/05/08 06:31:32;;;;;;;19.08;5.82;;;11.30;88.60;;;;;;5026662;28;20203;-72
2022/05/08 06:33:58;;;;;;;23.45;6.10;;;11.40;89.50;;;;;;5003614;28;20104;-73
2022/05/08 06:36:26;;;;;;;18.67;5.88;;;11.50;87.70;;;;;;5008091;28;20733;-74
2022/05/08 06:38:52;;;;;;;18.13;6.00;;;11.60;88.00;;;;;;5009730;28;20131;-74
2022/05/08 06:41:18;;;;;;;18.23;5.25;;;11.70;87.80;;;;;;5009779;28;20059;-73
2022/05/08 06:43:44;;;;;;;16.40;5.82;;;11.80;87.00;;;;;;5011362;28;20034;-73
2022/05/08 06:46:11;;;;;;;14.63;5.75;;;11.90;86.20;;;;;;5032980;28;20385;-73
2022/05/08 06:48:37;;;;;;;17.88;5.22;;;12.00;85.40;;;;;;5037736;28;20463;-73
2022/05/08 06:51:03;;;;;;;15.13;4.80;;;12.20;84.70;;;;;;5004442;28;20034;-73
2022/05/08 06:53:31;;;;;;;15.63;5.07;;;12.40;82.90;;;;;;5000669;28;20034;-73
2022/05/08 06:55:57;;;;;;;23.60;4.63;;;12.50;83.90;;;;;;5031742;28;20030;-74
2022/05/08 06:58:24;;;;;;;18.90;5.18;;;12.70;82.50;;;;;;5012513;28;20030;-74
2022/05/08 07:03:36;;;;;;;22.77;5.45;;;12.90;81.50;;;;;;5002185;28;20042;-74
2022/05/08 07:06:01;;;;;;;13.60;4.30;;;13.10;80.50;;;;;;5009213;28;20042;-74
2022/05/08 07:08:27;;;;;;;17.15;5.22;;;13.20;79.60;;;;;;5008403;28;20108;-73
2022/05/08 07:10:53;;;;;;;14.55;4.50;;;13.30;79.60;;;;;;5003777;28;20036;-74
2022/05/08 07:13:23;;;;;;;17.05;4.30;;;13.30;79.10;;;;;;5004211;28;20037;-74
2022/05/08 07:15:49;;;;;;;20.85;4.13;;;13.50;78.60;;;;;;5009742;28;20050;-73
2022/05/08 07:18:14;;;;;;;20.85;4.60;;;13.60;78.30;;;;;;5009876;28;20033;-72
2022/05/08 07:20:40;;;;;;;17.38;4.68;;;13.60;76.40;;;;;;4995357;28;20026;-74
2022/05/08 07:23:06;;;;;;;14.25;3.88;;;13.70;77.70;;;;;;5021888;28;20078;-74
2022/05/08 07:25:31;;;;;;;15.13;3.95;;;13.80;77.20;;;;;;4999411;28;20033;-73
2022/05/08 07:27:57;;;;;;;16.77;4.07;;;13.90;76.60;;;;;;5008341;28;20172;-74
2022/05/08 07:30:23;;;;;;;18.67;4.22;;;14.10;74.10;;;;;;5009404;28;20037;-74
2022/05/08 07:32:48;;;;;;;16.48;3.90;;;14.10;74.00;;;;;;5006389;28;20026;-74
2022/05/08 07:37:59;;;;;;;14.65;3.67;;;14.30;75.50;;;;;;5004436;28;20024;-72
2022/05/08 07:40:26;;;;;;;16.65;3.65;;;14.40;74.00;;;;;;5005215;28;20026;-72
2022/05/08 07:42:52;;;;;;;18.10;4.28;;;14.50;73.30;;;;;;5023225;28;20033;-73
2022/05/08 07:45:18;;;;;;;15.20;3.22;;;14.50;73.60;;;;;;5008494;28;20029;-73
2022/05/08 07:47:43;;;;;;;11.88;3.35;;;14.50;74.20;;;;;;5023491;28;20048;-72
2022/05/08 07:50:09;;;;;;;13.02;2.83;;;14.60;73.50;;;;;;5007999;28;20571;-74
2022/05/08 07:52:39;;;;;;;14.32;3.42;;;14.70;72.10;;;;;;5017879;28;20180;-73
2022/05/08 07:55:05;;;;;;;;;;;14.70;70.90;;;;;;5020292;28;20037;-73
2022/05/08 07:57:31;;;;;;;15.30;3.40;;;14.80;72.20;;;;;;5004486;28;19923;-73
2022/05/08 07:59:57;;;;;;;17.10;3.75;;;14.80;72.80;;;;;;5019330;28;20416;-73
2022/05/08 08:02:22;;;;;;;15.93;3.55;;;15.00;72.30;;;;;;5002502;28;20472;-74
2022/05/08 08:04:48;;;;;;;15.25;3.70;;;15.10;70.60;;;;;;5004580;28;20112;-74
2022/05/08 08:07:13;;;;;;;15.32;3.55;;;15.20;70.50;;;;;;5018713;28;20392;-74
2022/05/08 08:09:39;;;;;;;15.10;3.65;;;15.20;70.00;;;;;;4998123;28;20103;-75
2022/05/08 08:12:05;;;;;;;16.02;3.60;;;15.20;69.90;;;;;;4999705;28;20056;-74
2022/05/08 08:14:30;;;;;;;12.60;3.25;;;15.20;70.50;;;;;;5019532;28;20057;-73
2022/05/08 08:16:56;;;;;;;14.70;3.78;;;15.30;69.50;;;;;;5003479;28;20391;-73
2022/05/08 08:19:22;;;;;;;13.70;3.30;;;15.40;70.00;;;;;;5004898;28;20034;-74
2022/05/08 08:21:47;;;;;;;15.57;3.38;;;15.50;68.00;;;;;;5005736;28;20091;-74
2022/05/08 08:24:13;;;;;;;17.80;2.75;;;15.60;69.30;;;;;;5026903;28;20587;-73
2022/05/08 08:26:40;;;;;;;15.80;3.80;;;15.70;68.60;;;;;;4999841;28;20021;-74
2022/05/08 08:29:06;;;;;;;16.13;3.35;;;15.70;67.60;;;;;;5018521;28;20048;-75
2022/05/08 08:31:32;;;;;;;16.60;3.55;;;15.80;68.10;;;;;;4997514;28;20033;-73
2022/05/08 08:33:58;;;;;;;15.48;3.38;;;15.90;69.40;;;;;;5001350;28;20042;-72
2022/05/08 08:36:24;;;;;;;17.00;3.45;;;15.80;67.10;;;;;;5003637;28;20201;-73
2022/05/08 08:38:50;;;;;;;16.85;3.10;;;15.80;67.10;;;;;;4988459;28;20052;-74
2022/05/08 08:41:24;;;;;;;16.58;3.50;;;15.90;67.20;;;;;;4990207;28;20037;-75
2022/05/08 08:49:25;;;;;;;18.00;3.40;;;16.30;67.20;;;;;;4998814;28;20376;-74
2022/05/08 08:51:51;;;;;;;13.55;2.72;;;16.50;66.20;;;;;;5000103;28;20032;-73
2022/05/08 08:54:21;;;;;;;13.00;3.08;;;16.60;62.60;;;;;;5037524;28;20340;-73
2022/05/08 08:56:48;;;;;;;13.68;3.20;;;16.60;63.10;;;;;;5002664;28;20024;-71
2022/05/08 08:59:13;;;;;;;15.63;3.15;;;16.60;64.00;;;;;;4999867;28;20038;-73
2022/05/08 09:01:41;;;;;;;16.23;3.10;;;16.50;64.00;;;;;;5007147;28;20044;-72
2022/05/08 09:04:11;;;;;;;18.20;3.03;;;16.50;63.30;;;;;;5005008;28;20037;-75
2022/05/08 09:06:42;;;;;;;13.10;2.88;;;16.50;64.20;;;;;;5021643;28;20027;-73
2022/05/08 09:09:28;;;;;;;13.27;3.10;;;16.50;64.10;;;;;;5036586;28;20722;-73
2022/05/08 09:11:55;;;;;;;18.48;3.88;;;16.60;64.50;;;;;;4994631;28;20030;-73
2022/05/08 09:14:33;;;;;;;12.43;2.97;;;16.70;63.60;;;;;;4994914;28;20054;-74
2022/05/08 09:17:00;;;;;;;11.25;2.55;;;16.80;63.20;;;;;;5005268;28;20416;-74
2022/05/08 09:19:39;;;;;;;14.95;2.60;;;16.90;61.90;;;;;;4997725;28;20219;-74
2022/05/08 09:22:06;;;;;;;10.95;2.60;;;16.90;61.10;;;;;;5003525;28;20112;-73
2022/05/08 09:24:33;;;;;;;12.63;3.30;;;17.00;61.70;;;;;;5023141;28;20369;-73
2022/05/08 09:27:18;;;;;;;17.08;3.25;;;17.00;61.40;;;;;;4990587;28;20018;-74
2022/05/08 09:29:44;;;;;;;13.63;3.63;;;17.10;61.90;;;;;;5005432;28;20045;-73
2022/05/08 09:32:36;;;;;;;15.32;3.00;;;17.10;61.60;;;;;;5008413;28;20042;-73
2022/05/08 09:35:03;;;;;;;12.68;2.75;;;17.20;61.70;;;;;;5001567;28;20048;-73
2022/05/08 09:37:29;;;;;;;12.95;2.78;;;17.20;60.70;;;;;;4996312;28;20041;-73
2022/05/08 09:40:17;;;;;;;14.68;3.30;;;17.30;62.10;;;;;;5000156;28;20065;-75
2022/05/08 09:42:42;;;;;;;15.75;3.15;;;17.60;60.90;;;;;;5007806;28;20037;-73
2022/05/08 09:45:10;;;;;;;13.60;2.92;;;17.70;59.70;;;;;;5008492;28;20037;-73
2022/05/08 09:47:45;;;;;;;14.20;2.78;;;17.90;61.00;;;;;;5008524;28;20056;-73
2022/05/08 09:50:12;;;;;;;16.05;2.65;;;18.10;58.00;;;;;;5008251;28;20037;-76
2022/05/08 09:52:39;;;;;;;10.93;3.03;;;18.00;56.90;;;;;;5022463;28;20133;-74
2022/05/08 09:55:07;;;;;;;12.55;2.80;;;18.00;58.60;;;;;;5008171;28;20464;-75
2022/05/08 09:57:34;;;;;;;12.40;2.90;;;18.00;60.30;;;;;;5023396;28;20022;-75
2022/05/08 10:00:00;;;;;;;13.40;2.85;;;18.30;59.40;;;;;;5008453;28;20026;-75
2022/05/08 10:02:26;;;;;;;12.63;2.63;;;18.50;57.30;;;;;;5008307;28;20026;-76
2022/05/08 10:04:53;;;;;;;12.30;2.60;;;18.70;55.80;;;;;;5008632;28;20036;-76
2022/05/08 10:07:20;;;;;;;12.45;2.85;;;18.80;56.20;;;;;;5023532;28;20109;-74
2022/05/08 10:15:18;;;;;;;14.30;2.90;;;19.00;54.20;;;;;;5011941;28;20536;-74
2022/05/08 10:17:43;;;;;;;9.73;2.20;;;19.00;54.80;;;;;;5011575;28;20075;-73
2022/05/08 10:20:09;;;;;;;14.50;2.60;;;19.10;53.30;;;;;;5026809;28;20033;-75
2022/05/08 10:22:48;;;;;;;9.95;2.60;;;19.00;54.40;;;;;;5007818;28;20109;-75
2022/05/08 10:25:17;;;;;;;16.80;3.85;;;19.10;55.00;;;;;;5007162;28;20461;-73
2022/05/08 10:28:04;;;;;;;11.48;2.08;;;19.30;53.50;;;;;;4993257;28;20109;-77
2022/05/08 10:30:30;;;;;;;10.00;2.05;;;19.60;52.20;;;;;;5038830;28;20057;-76
2022/05/08 10:32:55;;;;;;;12.70;2.47;;;19.70;51.30;;;;;;4998469;28;20113;-73
2022/05/08 10:35:25;;;;;;;13.13;2.63;;;19.80;51.50;;;;;;4998455;28;20038;-75
2022/05/08 10:37:56;;;;;;;;;;;19.90;50.90;;;;;;5006579;28;20138;-72
2022/05/08 10:40:22;;;;;;;11.38;2.60;;;20.00;51.00;;;;;;5001150;28;19913;-76
2022/05/08 10:42:54;;;;;;;11.00;2.55;;;19.90;51.00;;;;;;5020905;28;20388;-73
2022/05/08 10:45:32;;;;;;;12.48;2.67;;;19.80;51.40;;;;;;5002553;28;20034;-76
2022/05/08 10:48:03;;;;;;;13.15;2.75;;;19.80;51.00;;;;;;5002731;28;20040;-74
2022/05/08 10:50:29;;;;;;;13.40;2.38;;;19.70;50.70;;;;;;4995208;28;20384;-76
2022/05/08 10:52:57;;;;;;;14.60;2.65;;;19.80;51.60;;;;;;5031162;28;20080;-75
2022/05/08 10:55:23;;;;;;;13.35;2.58;;;20.00;50.80;;;;;;4998555;28;20053;-74
2022/05/08 10:57:51;;;;;;;10.07;2.30;;;20.20;50.70;;;;;;5022172;28;20088;-74
2022/05/08 11:00:25;;;;;;;12.05;2.45;;;20.40;49.50;;;;;;5003699;28;20530;-74
2022/05/08 11:02:54;;;;;;;11.13;2.22;;;20.40;49.60;;;;;;4991469;28;20030;-76
2022/05/08 11:05:27;;;;;;;11.00;2.20;;;20.60;49.80;;;;;;5000361;28;20026;-74
2022/05/08 11:08:00;;;;;;;12.70;2.67;;;21.80;46.50;;;;;;5003642;28;20037;-74
2022/05/08 11:10:30;;;;;;;12.00;2.40;;;22.50;44.70;;;;;;4992853;28;20262;-74
2022/05/08 11:13:04;;;;;;;13.80;2.47;;;21.80;46.20;;;;;;5001187;28;20168;-76
2022/05/08 11:15:30;;;;;;;11.40;2.35;;;21.50;45.70;;;;;;4998030;28;20045;-73
2022/05/08 11:18:07;;;;;;;11.60;2.22;;;21.70;46.40;;;;;;5020549;28;20026;-73
2022/05/08 11:20:38;;;;;;;9.90;2.30;;;21.60;44.60;;;;;;5003520;28;20036;-74
2022/05/08 11:23:10;;;;;;;9.60;2.33;;;21.60;44.90;;;;;;5000877;28;20472;-74
2022/05/08 11:25:35;;;;;;;8.32;2.20;;;21.50;45.60;;;;;;5032935;28;20038;-75
2022/05/08 11:28:01;;;;;;;9.63;2.25;;;21.30;45.80;;;;;;5005214;28;20084;-72
2022/05/08 11:30:28;;;;;;;10.30;2.30;;;21.10;47.00;;;;;;5002004;28;20034;-74
2022/05/08 11:36:20;;;;;;;7.20;2.00;;;21.90;45.70;;;;;;4999978;28;20519;-76
2022/05/08 11:38:27;;;;;;;11.70;3.10;;;22.10;44.40;;;;;;5003125;28;20148;-75
2022/05/08 11:40:53;;;;;;;11.30;2.40;;;22.00;44.80;;;;;;5018549;28;20686;-73
2022/05/08 11:43:38;;;;;;;11.27;2.22;;;22.10;43.60;;;;;;4997721;28;20038;-73
2022/05/08 11:46:04;;;;;;;9.55;2.05;;;21.90;44.50;;;;;;5008100;28;20034;-74
2022/05/08 11:48:37;;;;;;;12.13;2.33;;;23.00;41.20;;;;;;5002661;28;20522;-73
2022/05/08 11:51:04;;;;;;;12.07;2.03;;;23.50;40.30;;;;;;5008583;28;20030;-74
2022/05/08 11:53:42;;;;;;;6.65;2.00;;;23.20;40.50;;;;;;5023819;28;20777;-75
2022/05/08 11:56:28;;;;;;;13.50;2.38;;;22.60;41.90;;;;;;5010145;28;20026;-73
2022/05/08 11:58:59;;;;;;;10.23;1.90;;;22.40;41.80;;;;;;4999501;28;20477;-72
2022/05/08 12:01:33;;;;;;;9.27;2.38;;;22.30;42.10;;;;;;5007198;28;20547;-71
2022/05/08 12:04:21;;;;;;;9.68;2.38;;;22.40;43.00;;;;;;5008268;28;20030;-73
2022/05/08 12:07:10;;;;;;;8.18;1.98;;;22.70;41.90;;;;;;5000391;28;20032;-75
2022/05/08 12:09:37;;;;;;;10.38;1.80;;;22.80;41.60;;;;;;5002225;28;20030;-75
2022/05/08 12:12:26;;;;;;;7.65;1.88;;;23.20;42.00;;;;;;5002787;28;20025;-75
2022/05/08 12:14:53;;;;;;;12.63;2.63;;;24.10;40.00;;;;;;5019192;28;20069;-74
2022/05/08 12:17:19;;;;;;;7.90;1.98;;;23.90;38.90;;;;;;5003789;28;20407;-73
2022/05/08 12:19:56;;;;;;;10.23;1.95;;;23.50;40.80;;;;;;5004826;28;20036;-76
2022/05/08 12:22:27;;;;;;;11.50;2.70;;;23.10;39.90;;;;;;4999391;28;20463;-75
2022/05/08 12:24:54;;;;;;;8.65;1.85;;;22.40;39.80;;;;;;5007351;28;20026;-76
2022/05/08 12:27:20;;;;;;;9.25;1.90;;;22.10;40.90;;;;;;5001404;28;20736;-74
2022/05/08 12:29:46;;;;;;;11.68;2.50;;;22.80;40.70;;;;;;4998495;28;20072;-76
2022/05/08 12:32:14;;;;;;;8.68;2.00;;;24.00;39.60;;;;;;4999795;28;20038;-74
2022/05/08 12:34:41;;;;;;;12.63;2.40;;;25.30;37.60;;;;;;5003228;28;20026;-76
2022/05/08 12:37:11;;;;;;;8.75;1.90;;;26.70;34.80;;;;;;5001868;28;20042;-75
2022/05/08 12:39:37;;;;;;;6.60;1.80;;;27.40;34.50;;;;;;5005057;28;20026;-76
2022/05/08 12:42:04;;;;;;;8.55;2.00;;;26.30;32.80;;;;;;5004481;28;20028;-76
2022/05/08 12:44:30;;;;;;;10.65;2.40;;;25.20;35.20;;;;;;5000748;28;20034;-75
2022/05/08 12:46:56;;;;;;;9.75;2.13;;;24.20;37.90;;;;;;5000381;28;20084;-74
2022/05/08 12:49:22;;;;;;;7.18;1.70;;;24.80;37.10;;;;;;5000031;28;20778;-76
2022/05/08 12:51:47;;;;;;;9.32;2.08;;;25.00;37.90;;;;;;5013731;28;20061;-75
2022/05/08 12:54:13;;;;;;;8.10;1.83;;;24.20;36.20;;;;;;5005703;28;20037;-79
2022/05/08 12:56:40;;;;;;;6.32;1.60;;;23.60;37.10;;;;;;5002389;28;20029;-76
2022/05/08 13:01:50;;;;;;;8.43;1.92;;;23.40;39.30;;;;;;4996877;28;20049;-76
2022/05/08 13:04:16;;;;;;;9.93;2.20;;;23.30;38.00;;;;;;5002784;28;20045;-76
2022/05/08 13:06:41;;;;;;;8.15;2.03;;;23.00;41.20;;;;;;5002370;28;20119;-75
2022/05/08 13:09:07;;;;;;;9.73;2.55;;;22.80;40.90;;;;;;5005609;28;20037;-76
2022/05/08 13:11:37;;;;;;;10.93;2.40;;;22.60;40.30;;;;;;5002103;28;20030;-76
2022/05/08 13:14:06;;;;;;;10.43;2.55;;;22.20;39.90;;;;;;5004365;28;20267;-76
2022/05/08 13:16:32;;;;;;;;;;;22.20;40.60;;;;;;5000717;28;20081;-75
2022/05/08 13:18:58;;;;;;;9.85;1.90;;;21.80;39.90;;;;;;4998476;28;19936;-76